Woody, CA (93287)

12:51 PM PDT on September 19, 2014 (GMT -0700)
RAWS WOFFORD HEIGHTS CA US | Change Station
CLOSE
Current Station
Personal Weather Station
Location: Wofford Heights, CA
Elevation: 3149 ft
Nearby Weather Stations

Elev 3149 ft 35.72 °N, 118.50 °W | Updated 51 minutes ago

Clear
Clear
76 °F
Feels Like 78 °F
N
5
Wind Variable Wind from ESE
Gusts 11.0 mph

Today
High -- | Low -- °F
--% Chance of Precip.
Yesterday
High -- | Low -- °F
Precip. -- in
6:41 AM 6:56 PM
Waning Crescent, 17% visible
Pressure 29.87 in
Visibility 10.0 miles
Clouds Clear
Heat Index 78 °F
Dew Point 52 °F
Humidity 44%
Rainfall 0.00 in
Snow Depth 0 in , 0 in , 0 in
UV 8 out of 12
Pollen 6.60 out of 12
Air Quality Not available.
Flu Activity Not available.
METAR KBFL 191854Z VRB04KT 10SM CLR 26/13 A2989 RMK AO2 SLP114 T02610133

More Conditions Fewer Conditions

Pressure 29.87 in
Visibility 10.0 miles
Clouds Clear
Heat Index 78 °F
Dew Point 52 °F
Humidity 44%
Rainfall 0.00 in
Snow Depth 0 in , 0 in , 0 in
UV 8 out of 12
Pollen 6.60 out of 12
Air Quality Not available.
Flu Activity Not available.
METAR KBFL 191854Z VRB04KT 10SM CLR 26/13 A2989 RMK AO2 SLP114 T02610133

More Conditions Fewer Conditions

10-Day Weather Forecast

Almanac

Astronomy

Sep. 19, 2014 Rise Set
Actual Time 6:41 AM PDT 6:56 PM PDT
Civil Twilight 6:15 AM PDT 7:21 PM PDT
Nautical Twilight 5:45 AM PDT 7:51 PM PDT
Astronomical Twilight 5:15 AM PDT 8:21 PM PDT
Moon 2:37 AM PDT 4:22 PM PDT
Length of Visible Light 13h 06m
Length of Day
12h 15m
Tomorrow will be 2m 14s shorter.
Waning Crescent, 17% of the Moon is Illuminated
Today
Waning Crescent
Sep 24
New
Oct 1
First Quarter
Oct 8
Full
Oct 15
Last Quarter

Today's Extremes

State Highs State Lows

Community

WunderPhotos

Upload Photos

1,754,687 photos uploaded!

WunderBlogs® & News

By Dr. Jeff Masters
Director of Meteorology, Weather Underground
By Kari Strenfel
Meteorologist, Weather Underground
By Christopher C. Burt
Weather Historian, Weather Underground
September 19, 2014
September 19, 2014
September 19, 2014

Nearby

Air Quality

  Air Quality AQ Index Pollutant
Yesterday Good
OZONE
Yesterday Good
PM2.5
Friday Good
OZONE
Saturday Good
OZONE
Sunday Good
OZONE
Monday Good
OZONE
Tuesday Good
OZONE

Snow Depth

Station Depth Elevation
Leavitt Lake 0 in 9400 ft
Blue Lakes 0 in 8000 ft
Adin Mountain 0 in 6200 ft
CSS Lab 3 in 6900 ft
Burnside Lake 0 in 8139 ft

Earthquake Activity

City Distance Mag. Time & Date
Corcoran, California 54 miles 3.0 3:59 PM PDT
2014-09-18
Minimum magnitude displayed is 2.5.

Coastal Water Temperatures

Place Temperature
No Stations Reporting

Nearby Weather Stations